createdAt,value
2019-03-15T00:00:37.477Z,0.00
2019-03-15T00:01:37.491Z,0.00
2019-03-15T00:02:37.506Z,0.00
2019-03-15T00:03:37.518Z,0.00
2019-03-15T00:04:39.845Z,0.00
2019-03-15T00:05:37.544Z,0.00
2019-03-15T00:06:37.560Z,0.00
2019-03-15T00:07:37.574Z,0.00
2019-03-15T00:08:37.586Z,0.00
2019-03-15T00:09:37.599Z,0.00
2019-03-15T00:10:37.614Z,0.00
2019-03-15T00:11:37.626Z,0.00
2019-03-15T00:12:37.650Z,0.00
2019-03-15T00:13:38.542Z,0.00
2019-03-15T00:14:37.668Z,0.00
2019-03-15T00:15:37.683Z,0.00
2019-03-15T00:16:37.694Z,0.00
2019-03-15T00:17:37.707Z,0.00
2019-03-15T00:18:37.722Z,0.00
2019-03-15T00:19:37.734Z,0.00
2019-03-15T00:20:37.748Z,0.00
2019-03-15T00:21:37.762Z,0.00
2019-03-15T00:22:37.776Z,0.00
2019-03-15T00:23:37.787Z,0.00
2019-03-15T00:24:37.801Z,0.00
2019-03-15T00:25:37.817Z,0.00
2019-03-15T00:26:37.830Z,0.00
2019-03-15T00:27:37.843Z,0.00
2019-03-15T00:28:37.856Z,0.00
2019-03-15T00:29:37.871Z,0.00
2019-03-15T00:30:37.882Z,0.00
2019-03-15T00:31:37.901Z,0.00
2019-03-15T00:32:37.909Z,0.00
2019-03-15T00:33:37.924Z,0.00
2019-03-15T00:34:37.936Z,0.00
2019-03-15T00:35:37.951Z,0.00
2019-03-15T00:36:37.966Z,0.00
2019-03-15T00:37:37.977Z,0.00
2019-03-15T00:38:37.990Z,0.00
2019-03-15T00:39:38.005Z,0.00
2019-03-15T00:40:38.018Z,0.00
2019-03-15T00:41:38.031Z,0.00
2019-03-15T00:42:38.045Z,0.00
2019-03-15T00:43:38.058Z,0.00
2019-03-15T00:44:38.072Z,0.00
2019-03-15T00:45:38.091Z,0.00
2019-03-15T00:46:38.098Z,0.00
2019-03-15T00:47:38.115Z,0.00
2019-03-15T00:48:38.130Z,0.00
2019-03-15T00:49:38.141Z,0.00
2019-03-15T00:50:38.155Z,0.00
2019-03-15T00:51:38.170Z,0.00
2019-03-15T00:52:38.181Z,0.00
2019-03-15T00:53:38.196Z,0.00
2019-03-15T00:54:38.210Z,0.00
2019-03-15T00:55:38.226Z,0.00
2019-03-15T00:56:38.237Z,0.00
2019-03-15T00:57:38.255Z,0.00
2019-03-15T00:58:38.265Z,0.00
2019-03-15T00:59:38.278Z,0.00
2019-03-15T01:00:38.291Z,0.00
2019-03-15T01:01:38.305Z,0.00
2019-03-15T01:02:38.320Z,0.00
2019-03-15T01:03:38.335Z,0.00
2019-03-15T01:04:38.347Z,0.00
2019-03-15T01:05:38.359Z,0.00
2019-03-15T01:06:38.374Z,0.00
2019-03-15T01:07:38.389Z,0.00
2019-03-15T01:08:38.400Z,0.00
2019-03-15T01:09:38.416Z,0.00
2019-03-15T01:10:38.434Z,0.00
2019-03-15T01:11:38.473Z,0.00
2019-03-15T01:12:38.528Z,0.00
2019-03-15T01:13:38.536Z,0.00
2019-03-15T01:14:38.546Z,0.00
2019-03-15T01:15:38.584Z,0.00
2019-03-15T01:16:38.591Z,0.00
2019-03-15T01:17:38.589Z,0.00
2019-03-15T01:18:38.584Z,0.00
2019-03-15T01:19:38.582Z,0.00
2019-03-15T01:20:38.603Z,0.00
2019-03-15T01:21:38.583Z,0.00
2019-03-15T01:22:38.596Z,0.00
2019-03-15T01:23:38.609Z,0.00
2019-03-15T01:24:38.688Z,0.00
2019-03-15T01:25:38.639Z,0.00
2019-03-15T01:26:38.652Z,0.00
2019-03-15T01:27:38.664Z,0.00
2019-03-15T01:28:38.680Z,0.00
2019-03-15T01:29:38.695Z,0.00
2019-03-15T01:30:38.709Z,0.00
2019-03-15T01:31:38.723Z,0.00
2019-03-15T01:32:38.736Z,0.00
2019-03-15T01:33:38.752Z,0.00
2019-03-15T01:34:38.763Z,0.00
2019-03-15T01:35:38.779Z,0.00
2019-03-15T01:36:38.792Z,0.00
2019-03-15T01:37:38.806Z,0.00
2019-03-15T01:38:38.820Z,0.00
2019-03-15T01:39:38.835Z,0.00
2019-03-15T01:40:38.998Z,0.00
2019-03-15T01:41:38.863Z,0.00
2019-03-15T01:42:38.875Z,0.00
2019-03-15T01:43:38.894Z,0.00
2019-03-15T01:44:38.906Z,0.00
2019-03-15T01:45:38.918Z,0.00
2019-03-15T01:46:38.932Z,0.00
2019-03-15T01:47:38.948Z,0.00
2019-03-15T01:48:38.959Z,0.00
2019-03-15T01:49:38.977Z,0.00
2019-03-15T01:50:38.990Z,0.00
2019-03-15T01:51:39.006Z,0.00
2019-03-15T01:52:39.016Z,0.00
2019-03-15T01:53:39.032Z,0.00
2019-03-15T01:54:39.046Z,0.00
2019-03-15T01:55:39.065Z,0.00
2019-03-15T01:56:39.074Z,0.00
2019-03-15T01:57:39.092Z,0.00
2019-03-15T01:58:39.104Z,0.00
2019-03-15T01:59:39.119Z,0.00
2019-03-15T02:00:39.130Z,0.00
2019-03-15T02:01:39.146Z,0.00
2019-03-15T02:02:39.160Z,0.00
2019-03-15T02:03:39.557Z,0.00
2019-03-15T02:04:39.188Z,0.00
2019-03-15T02:05:39.200Z,0.00
2019-03-15T02:06:39.219Z,0.00
2019-03-15T02:07:39.233Z,0.00
2019-03-15T02:08:39.246Z,0.00
2019-03-15T02:09:39.259Z,0.00
2019-03-15T02:10:39.275Z,0.00
2019-03-15T02:11:39.288Z,0.00
2019-03-15T02:12:39.305Z,0.00
2019-03-15T02:13:39.317Z,0.00
2019-03-15T02:14:39.329Z,0.00
2019-03-15T02:15:39.343Z,0.00
2019-03-15T02:16:39.355Z,0.00
2019-03-15T02:17:39.459Z,0.00
2019-03-15T02:18:39.383Z,0.00
2019-03-15T02:19:39.399Z,0.00
2019-03-15T02:20:39.412Z,0.00
2019-03-15T02:21:39.426Z,0.00
2019-03-15T02:22:39.441Z,0.00
2019-03-15T02:23:39.460Z,0.00
2019-03-15T02:24:39.468Z,0.00
2019-03-15T02:25:39.481Z,0.00
2019-03-15T02:26:39.502Z,0.00
2019-03-15T02:27:39.512Z,0.00
2019-03-15T02:28:39.522Z,0.00
2019-03-15T02:29:39.538Z,0.00
2019-03-15T02:30:39.554Z,0.00
2019-03-15T02:31:39.578Z,0.00
2019-03-15T02:32:39.792Z,0.00
2019-03-15T02:33:39.593Z,0.00
2019-03-15T02:34:39.611Z,0.00
2019-03-15T02:35:39.626Z,0.00
2019-03-15T02:36:40.163Z,0.00
2019-03-15T02:37:39.651Z,0.00
2019-03-15T02:38:39.670Z,0.00
2019-03-15T02:39:39.678Z,0.00
2019-03-15T02:40:39.693Z,0.00
2019-03-15T02:41:39.710Z,0.00
2019-03-15T02:42:39.723Z,0.00
2019-03-15T02:43:39.739Z,0.00
2019-03-15T02:44:39.748Z,0.00
2019-03-15T02:45:39.763Z,0.00
2019-03-15T02:46:39.777Z,0.00
2019-03-15T02:47:39.792Z,0.00
2019-03-15T02:48:40.720Z,0.00
2019-03-15T02:49:39.820Z,0.00
2019-03-15T02:50:39.834Z,0.00
2019-03-15T02:51:39.851Z,0.00
2019-03-15T02:52:39.859Z,0.00
2019-03-15T02:53:39.876Z,0.00
2019-03-15T02:54:39.890Z,0.00
2019-03-15T02:55:39.903Z,0.00
2019-03-15T02:56:40.153Z,0.00
2019-03-15T02:57:39.931Z,0.00
2019-03-15T02:58:39.947Z,0.00
2019-03-15T02:59:39.962Z,0.00
2019-03-15T03:00:41.002Z,0.00
2019-03-15T03:01:39.985Z,0.00
2019-03-15T03:02:40.003Z,0.00
2019-03-15T03:03:40.016Z,0.00
2019-03-15T03:04:40.897Z,0.00
2019-03-15T03:05:40.050Z,0.00
2019-03-15T03:06:40.055Z,0.00
2019-03-15T03:07:40.077Z,0.00
2019-03-15T03:08:41.298Z,0.00
2019-03-15T03:09:40.100Z,0.00
2019-03-15T03:10:40.114Z,0.00
2019-03-15T03:11:40.140Z,0.00
2019-03-15T03:12:40.141Z,0.00
2019-03-15T03:13:40.154Z,0.00
2019-03-15T03:14:40.175Z,0.00
2019-03-15T03:15:40.210Z,0.00
2019-03-15T03:16:40.201Z,0.00
2019-03-15T03:17:40.347Z,0.00
2019-03-15T03:18:40.224Z,0.00
2019-03-15T03:19:40.241Z,0.00
2019-03-15T03:20:40.252Z,0.00
2019-03-15T03:21:40.266Z,0.00
2019-03-15T03:22:40.298Z,0.00
2019-03-15T03:23:40.369Z,0.00
2019-03-15T03:24:40.371Z,0.00
2019-03-15T03:25:40.357Z,0.00
2019-03-15T03:26:40.489Z,0.00
2019-03-15T03:27:40.423Z,0.00
2019-03-15T03:28:40.426Z,0.00
2019-03-15T03:29:40.420Z,0.00
2019-03-15T03:30:40.439Z,0.00
2019-03-15T03:31:40.475Z,0.00
2019-03-15T03:32:42.939Z,0.00
2019-03-15T03:33:40.981Z,0.00
2019-03-15T03:34:40.744Z,0.00
2019-03-15T03:35:40.467Z,0.00
2019-03-15T03:36:40.480Z,0.00
2019-03-15T03:37:40.500Z,0.00
2019-03-15T03:38:40.505Z,0.00
2019-03-15T03:39:40.519Z,0.00
2019-03-15T03:40:40.532Z,0.00
2019-03-15T03:41:40.548Z,0.00
2019-03-15T03:42:40.560Z,0.00
2019-03-15T03:43:40.575Z,0.00
2019-03-15T03:44:40.586Z,0.00
2019-03-15T03:45:40.605Z,0.00
2019-03-15T03:46:40.616Z,0.00
2019-03-15T03:47:40.630Z,0.00
2019-03-15T03:48:40.639Z,0.00
2019-03-15T03:49:40.657Z,0.00
2019-03-15T03:50:40.744Z,0.00
2019-03-15T03:51:40.684Z,0.00
2019-03-15T03:52:41.950Z,0.00
2019-03-15T03:53:40.711Z,0.00
2019-03-15T03:54:40.725Z,0.00
2019-03-15T03:55:40.742Z,0.00
2019-03-15T03:56:40.752Z,0.00
2019-03-15T03:57:40.765Z,0.00
2019-03-15T03:58:40.780Z,0.00
2019-03-15T03:59:40.795Z,0.00
2019-03-15T04:00:40.805Z,0.00
2019-03-15T04:01:40.823Z,0.00
2019-03-15T04:02:40.837Z,0.00
2019-03-15T04:03:40.851Z,0.00
2019-03-15T04:04:40.862Z,0.00
2019-03-15T04:05:40.877Z,0.00
2019-03-15T04:06:40.891Z,0.00
2019-03-15T04:07:40.903Z,0.00
2019-03-15T04:08:40.922Z,0.00
2019-03-15T04:09:40.931Z,0.00
2019-03-15T04:10:40.950Z,0.00
2019-03-15T04:11:54.284Z,0.00
2019-03-15T04:12:40.977Z,0.00
2019-03-15T04:13:40.986Z,0.00
2019-03-15T04:14:41.000Z,0.00
2019-03-15T04:15:41.014Z,0.00
2019-03-15T04:16:41.029Z,0.00
2019-03-15T04:17:41.048Z,0.00
2019-03-15T04:18:41.055Z,0.00
2019-03-15T04:19:41.067Z,0.00
2019-03-15T04:20:41.086Z,0.00
2019-03-15T04:21:41.095Z,0.00
2019-03-15T04:22:41.109Z,0.00
2019-03-15T04:23:41.126Z,0.00
2019-03-15T04:24:41.135Z,0.00
2019-03-15T04:25:41.149Z,0.00
2019-03-15T04:26:41.165Z,0.00
2019-03-15T04:27:41.271Z,0.00
2019-03-15T04:28:41.191Z,0.00
2019-03-15T04:29:41.206Z,0.00
2019-03-15T04:30:41.223Z,0.00
2019-03-15T04:31:41.234Z,0.00
2019-03-15T04:32:41.250Z,0.00
2019-03-15T04:33:41.260Z,0.00
2019-03-15T04:34:41.276Z,0.00
2019-03-15T04:35:41.288Z,0.00
2019-03-15T04:36:41.302Z,0.00
2019-03-15T04:37:41.315Z,0.00
2019-03-15T04:38:41.329Z,0.00
2019-03-15T04:39:41.345Z,0.00
2019-03-15T04:40:41.355Z,0.00
2019-03-15T04:41:41.372Z,0.00
2019-03-15T04:42:41.388Z,0.00
2019-03-15T04:43:41.399Z,0.00
2019-03-15T04:44:41.410Z,0.00
2019-03-15T04:45:41.425Z,0.00
2019-03-15T04:46:41.442Z,0.00
2019-03-15T04:47:43.496Z,0.00
2019-03-15T04:48:41.467Z,0.00
2019-03-15T04:49:41.482Z,0.00
2019-03-15T04:50:41.494Z,4.00
2019-03-15T04:51:41.513Z,4.00
2019-03-15T04:52:41.528Z,4.00
2019-03-15T04:53:41.536Z,4.00
2019-03-15T04:54:41.551Z,4.00
2019-03-15T04:55:41.564Z,4.00
2019-03-15T04:56:41.577Z,4.00
2019-03-15T04:57:41.593Z,8.00
2019-03-15T04:58:41.605Z,8.00
2019-03-15T04:59:41.620Z,8.00
2019-03-15T05:00:41.632Z,8.00
2019-03-15T05:01:41.645Z,12.00
2019-03-15T05:02:41.660Z,20.00
2019-03-15T05:03:41.674Z,24.00
2019-03-15T05:04:41.685Z,24.00
2019-03-15T05:05:41.705Z,28.00
2019-03-15T05:06:41.715Z,36.00
2019-03-15T05:07:41.818Z,40.00
2019-03-15T05:08:41.745Z,44.00
2019-03-15T05:09:41.773Z,52.00
2019-03-15T05:10:41.771Z,56.00
2019-03-15T05:11:41.785Z,64.00
2019-03-15T05:12:41.800Z,72.00
2019-03-15T05:13:41.812Z,84.00
2019-03-15T05:14:41.828Z,96.00
2019-03-15T05:15:41.839Z,92.00
2019-03-15T05:16:41.861Z,84.00
2019-03-15T05:17:41.869Z,92.00
2019-03-15T05:18:41.882Z,112.00
2019-03-15T05:19:41.896Z,144.00
2019-03-15T05:20:41.906Z,180.00
2019-03-15T05:21:41.922Z,208.00
2019-03-15T05:22:41.934Z,184.00
2019-03-15T05:23:41.949Z,188.00
2019-03-15T05:24:41.962Z,216.00
2019-03-15T05:25:41.976Z,212.00
2019-03-15T05:26:41.992Z,200.00
2019-03-15T05:27:42.004Z,252.00
2019-03-15T05:28:42.020Z,272.00
2019-03-15T05:29:42.030Z,264.00
2019-03-15T05:30:42.047Z,260.00
2019-03-15T05:31:42.059Z,332.00
2019-03-15T05:32:42.071Z,376.00
2019-03-15T05:33:42.086Z,416.00
2019-03-15T05:34:42.100Z,416.00
2019-03-15T05:35:42.132Z,484.00
2019-03-15T05:36:42.198Z,564.00
2019-03-15T05:37:42.199Z,660.00
2019-03-15T05:38:42.192Z,772.00
2019-03-15T05:39:42.209Z,864.00
2019-03-15T05:40:42.278Z,760.00
2019-03-15T05:41:42.263Z,748.00
2019-03-15T05:42:42.263Z,828.00
2019-03-15T05:43:42.262Z,776.00
2019-03-15T05:44:42.255Z,880.00
2019-03-15T05:45:42.254Z,964.00
2019-03-15T05:46:42.273Z,1084.00
2019-03-15T05:47:42.280Z,1020.00
2019-03-15T05:48:42.296Z,964.00
2019-03-15T05:49:42.305Z,964.00
2019-03-15T05:50:42.322Z,956.00
2019-03-15T05:51:42.335Z,940.00
2019-03-15T05:52:42.348Z,1048.00
2019-03-15T05:53:42.363Z,1100.00
2019-03-15T05:54:42.376Z,1064.00
2019-03-15T05:55:42.390Z,1068.00
2019-03-15T05:56:42.405Z,1020.00
2019-03-15T05:57:42.418Z,860.00
2019-03-15T05:58:42.434Z,836.00
2019-03-15T05:59:42.447Z,1128.00
2019-03-15T06:00:42.461Z,1144.00
2019-03-15T06:01:42.476Z,1232.00
2019-03-15T06:02:42.491Z,1096.00
2019-03-15T06:03:48.373Z,828.00
2019-03-15T06:04:42.515Z,724.00
2019-03-15T06:05:42.531Z,800.00
2019-03-15T06:06:42.545Z,1248.00
2019-03-15T06:07:42.560Z,1792.00
2019-03-15T06:08:42.573Z,2604.00
2019-03-15T06:09:42.587Z,2436.00
2019-03-15T06:10:42.602Z,2152.00
2019-03-15T06:11:42.615Z,2440.00
2019-03-15T06:12:42.631Z,3044.00
2019-03-15T06:13:42.646Z,3120.00
2019-03-15T06:14:42.658Z,3940.00
2019-03-15T06:15:42.677Z,3292.00
2019-03-15T06:16:42.687Z,3428.00
2019-03-15T06:17:42.821Z,3688.00
2019-03-15T06:18:42.716Z,3760.00
2019-03-15T06:19:42.730Z,3256.00
2019-03-15T06:20:42.743Z,3068.00
2019-03-15T06:21:42.757Z,3752.00
2019-03-15T06:22:42.775Z,4784.00
2019-03-15T06:23:42.790Z,4788.00
2019-03-15T06:24:42.801Z,4576.00
2019-03-15T06:25:42.815Z,4708.00
2019-03-15T06:26:42.831Z,4520.00
2019-03-15T06:27:42.845Z,5204.00
2019-03-15T06:28:42.856Z,5940.00
2019-03-15T06:29:42.872Z,6132.00
2019-03-15T06:30:42.888Z,5680.00
2019-03-15T06:31:42.903Z,6292.00
2019-03-15T06:32:42.921Z,5492.00
2019-03-15T06:33:42.929Z,5096.00
2019-03-15T06:34:42.947Z,6244.00
2019-03-15T06:35:42.963Z,7080.00
2019-03-15T06:36:42.973Z,6572.00
2019-03-15T06:37:42.996Z,6496.00
2019-03-15T06:38:43.009Z,6308.00
2019-03-15T06:39:43.018Z,6696.00
2019-03-15T06:40:43.036Z,6904.00
2019-03-15T06:41:43.049Z,7340.00
2019-03-15T06:42:43.063Z,7188.00
2019-03-15T06:43:43.081Z,7564.00
2019-03-15T06:44:43.092Z,8152.00
2019-03-15T06:45:43.107Z,7988.00
2019-03-15T06:46:43.125Z,7112.00
2019-03-15T06:47:43.137Z,6388.00
2019-03-15T06:48:45.084Z,6392.00
2019-03-15T06:49:43.167Z,6580.00
2019-03-15T06:50:43.183Z,6000.00
2019-03-15T06:51:43.198Z,4576.00
2019-03-15T06:52:43.212Z,4652.00
2019-03-15T06:53:43.229Z,5120.00
2019-03-15T06:54:43.245Z,6132.00
2019-03-15T06:55:43.260Z,6832.00
2019-03-15T06:56:43.279Z,6748.00
2019-03-15T06:57:43.300Z,7928.00
2019-03-15T06:58:43.309Z,7960.00
2019-03-15T06:59:43.326Z,8328.00
2019-03-15T07:00:43.335Z,8276.00
2019-03-15T07:01:43.349Z,8752.00
2019-03-15T07:02:43.366Z,9092.00
2019-03-15T07:03:43.383Z,9372.00
2019-03-15T07:04:43.395Z,10288.00
2019-03-15T07:05:43.412Z,6928.00
2019-03-15T07:06:43.430Z,6452.00
2019-03-15T07:07:43.444Z,6968.00
2019-03-15T07:08:43.460Z,6700.00
2019-03-15T07:09:43.482Z,6648.00
2019-03-15T07:10:44.259Z,6664.00
2019-03-15T07:11:43.512Z,6992.00
2019-03-15T07:12:43.526Z,6916.00
2019-03-15T07:13:43.545Z,7672.00
2019-03-15T07:14:43.552Z,7876.00
2019-03-15T07:15:44.473Z,7032.00
2019-03-15T07:16:43.586Z,7784.00
2019-03-15T07:17:43.599Z,9312.00
2019-03-15T07:18:43.618Z,10276.00
2019-03-15T07:19:43.632Z,11668.00
2019-03-15T07:20:43.648Z,13240.00
2019-03-15T07:21:46.687Z,12092.00
2019-03-15T07:22:43.681Z,9832.00
2019-03-15T07:23:43.695Z,8420.00
2019-03-15T07:24:43.992Z,10592.00
2019-03-15T07:25:43.727Z,10116.00
2019-03-15T07:26:43.986Z,8772.00
2019-03-15T07:27:43.760Z,8596.00
2019-03-15T07:28:43.775Z,8952.00
2019-03-15T07:29:43.791Z,10576.00
2019-03-15T07:30:43.807Z,10304.00
2019-03-15T07:31:43.822Z,10524.00
2019-03-15T07:32:43.841Z,11516.00
2019-03-15T07:33:43.860Z,11596.00
2019-03-15T07:34:43.873Z,10368.00
2019-03-15T07:35:43.894Z,9584.00
2019-03-15T07:36:43.905Z,8704.00
2019-03-15T07:37:45.647Z,10536.00
2019-03-15T07:38:43.940Z,11328.00
2019-03-15T07:39:43.961Z,10596.00
2019-03-15T07:40:44.045Z,10968.00
2019-03-15T07:41:44.050Z,13764.00
2019-03-15T07:42:44.052Z,13840.00
2019-03-15T07:43:44.105Z,15048.00
2019-03-15T07:44:44.124Z,17568.00
2019-03-15T07:45:44.105Z,17824.00
2019-03-15T07:46:44.103Z,16672.00
2019-03-15T07:47:44.099Z,15624.00
2019-03-15T07:48:44.106Z,16184.00
2019-03-15T07:49:44.118Z,15872.00
2019-03-15T07:50:44.136Z,15332.00
2019-03-15T07:51:44.151Z,15488.00
2019-03-15T07:52:44.169Z,15360.00
2019-03-15T07:53:44.185Z,14368.00
2019-03-15T07:54:44.204Z,12640.00
2019-03-15T07:55:44.222Z,12724.00
2019-03-15T07:56:44.239Z,12608.00
2019-03-15T07:57:44.254Z,12708.00
2019-03-15T07:58:44.273Z,13724.00
2019-03-15T07:59:44.287Z,14908.00
2019-03-15T08:00:44.304Z,14796.00
2019-03-15T08:01:44.321Z,15592.00
2019-03-15T08:02:44.341Z,16612.00
2019-03-15T08:03:44.356Z,15616.00
2019-03-15T08:04:44.371Z,16260.00
2019-03-15T08:05:44.388Z,16392.00
2019-03-15T08:06:44.410Z,14328.00
2019-03-15T08:07:45.538Z,12424.00
2019-03-15T08:08:44.661Z,11444.00
2019-03-15T08:09:44.458Z,11352.00
2019-03-15T08:10:44.475Z,12180.00
2019-03-15T08:11:44.492Z,10832.00
2019-03-15T08:12:44.511Z,10852.00
2019-03-15T08:13:44.524Z,10564.00
2019-03-15T08:14:44.543Z,11232.00
2019-03-15T08:15:44.561Z,12356.00
2019-03-15T08:16:44.577Z,12696.00
2019-03-15T08:17:44.684Z,13240.00
2019-03-15T08:18:44.613Z,12784.00
2019-03-15T08:19:44.632Z,12244.00
2019-03-15T08:20:44.645Z,12700.00
2019-03-15T08:21:44.664Z,13900.00
2019-03-15T08:22:44.693Z,14512.00
2019-03-15T08:23:44.696Z,12316.00
2019-03-15T08:24:51.440Z,10792.00
2019-03-15T08:25:44.732Z,10960.00
2019-03-15T08:26:44.748Z,14160.00
2019-03-15T08:27:44.764Z,12208.00
2019-03-15T08:28:44.782Z,9716.00
2019-03-15T08:29:44.800Z,11432.00
2019-03-15T08:30:44.817Z,12908.00
2019-03-15T08:31:47.010Z,15576.00
2019-03-15T08:32:44.853Z,13540.00
2019-03-15T08:33:44.872Z,13336.00
2019-03-15T08:34:44.887Z,12516.00
2019-03-15T08:35:44.911Z,11768.00
2019-03-15T08:36:44.921Z,12476.00
2019-03-15T08:37:44.942Z,10480.00
2019-03-15T08:38:47.730Z,10236.00
2019-03-15T08:39:44.978Z,11516.00
2019-03-15T08:40:44.991Z,13860.00
2019-03-15T08:41:45.012Z,14896.00
2019-03-15T08:42:45.029Z,15824.00
2019-03-15T08:43:46.110Z,15596.00
2019-03-15T08:44:45.068Z,15892.00
2019-03-15T08:45:45.081Z,14252.00
2019-03-15T08:46:45.100Z,11892.00
2019-03-15T08:47:45.114Z,12088.00
2019-03-15T08:48:45.132Z,11688.00
2019-03-15T08:49:45.151Z,10464.00
2019-03-15T08:50:45.170Z,13128.00
2019-03-15T08:51:45.188Z,13636.00
2019-03-15T08:52:45.205Z,12376.00
2019-03-15T08:53:45.223Z,11520.00
2019-03-15T08:54:46.636Z,14020.00
2019-03-15T08:55:45.261Z,15256.00
2019-03-15T08:56:45.278Z,14128.00
2019-03-15T08:57:45.297Z,14832.00
2019-03-15T08:58:45.312Z,16924.00
2019-03-15T08:59:56.626Z,16608.00
2019-03-15T09:00:45.346Z,12340.00
2019-03-15T09:01:45.365Z,13172.00
2019-03-15T09:02:45.388Z,16092.00
2019-03-15T09:03:45.403Z,16756.00
2019-03-15T09:04:45.419Z,17140.00
2019-03-15T09:05:45.440Z,18272.00
2019-03-15T09:06:45.458Z,18720.00
2019-03-15T09:07:45.476Z,19232.00
2019-03-15T09:08:45.493Z,16668.00
2019-03-15T09:09:45.509Z,15060.00
2019-03-15T09:10:45.530Z,13192.00
2019-03-15T09:11:45.548Z,9896.00
2019-03-15T09:12:45.565Z,9892.00
2019-03-15T09:13:48.908Z,10008.00
2019-03-15T09:14:45.604Z,10584.00
2019-03-15T09:15:45.620Z,13892.00
2019-03-15T09:16:45.640Z,20160.00
2019-03-15T09:17:45.658Z,19104.00
2019-03-15T09:18:45.677Z,18592.00
2019-03-15T09:19:45.696Z,21472.00
2019-03-15T09:20:45.716Z,19936.00
2019-03-15T09:21:45.731Z,21440.00
2019-03-15T09:22:45.757Z,21344.00
2019-03-15T09:23:45.769Z,22880.00
2019-03-15T09:24:45.786Z,22272.00
2019-03-15T09:25:45.808Z,21984.00
2019-03-15T09:26:45.832Z,22528.00
2019-03-15T09:27:45.999Z,22368.00
2019-03-15T09:28:45.914Z,22400.00
2019-03-15T09:29:45.912Z,22272.00
2019-03-15T09:30:45.931Z,20064.00
2019-03-15T09:31:47.931Z,18432.00
2019-03-15T09:32:45.981Z,15752.00
2019-03-15T09:33:45.978Z,15476.00
2019-03-15T09:34:45.985Z,14220.00
2019-03-15T09:35:45.996Z,14232.00
2019-03-15T09:36:50.423Z,13700.00
2019-03-15T09:37:47.727Z,16832.00
2019-03-15T09:38:46.053Z,20288.00
2019-03-15T09:39:46.070Z,21312.00
2019-03-15T09:40:46.087Z,21696.00
2019-03-15T09:41:46.119Z,21216.00
2019-03-15T09:42:46.125Z,21056.00
2019-03-15T09:43:46.147Z,21824.00
2019-03-15T09:44:46.163Z,21984.00
2019-03-15T09:45:46.186Z,22688.00
2019-03-15T09:46:46.205Z,22848.00
2019-03-15T09:47:46.224Z,22144.00
2019-03-15T09:48:46.240Z,22176.00
2019-03-15T09:49:46.260Z,22112.00
2019-03-15T09:50:51.622Z,21504.00
2019-03-15T09:51:46.297Z,20000.00
2019-03-15T09:52:46.317Z,18432.00
2019-03-15T09:53:46.336Z,17632.00
2019-03-15T09:54:46.356Z,18912.00
2019-03-15T09:55:46.375Z,20192.00
2019-03-15T09:56:46.394Z,20512.00
2019-03-15T09:57:46.413Z,20480.00
2019-03-15T09:58:46.433Z,19776.00
2019-03-15T09:59:46.453Z,19520.00
2019-03-15T10:00:46.473Z,19200.00
2019-03-15T10:01:46.491Z,19424.00
2019-03-15T10:02:46.510Z,19168.00
2019-03-15T10:03:46.532Z,18624.00
2019-03-15T10:04:46.551Z,21184.00
2019-03-15T10:05:46.570Z,21184.00
2019-03-15T10:06:46.590Z,23584.00
2019-03-15T10:07:46.628Z,23584.00
2019-03-15T10:08:46.628Z,24384.00
2019-03-15T10:09:46.648Z,24704.00
2019-03-15T10:10:49.018Z,21920.00
2019-03-15T10:11:46.685Z,23168.00
2019-03-15T10:12:46.726Z,21920.00
2019-03-15T10:13:46.725Z,21568.00
2019-03-15T10:14:46.745Z,20288.00
2019-03-15T10:15:46.835Z,22112.00
2019-03-15T10:16:46.785Z,20832.00
2019-03-15T10:17:46.808Z,18912.00
2019-03-15T10:18:46.825Z,22784.00
2019-03-15T10:19:46.850Z,21984.00
2019-03-15T10:20:46.872Z,22272.00
2019-03-15T10:21:46.885Z,23136.00
2019-03-15T10:23:04.285Z,24832.00
2019-03-15T10:23:46.929Z,24608.00
2019-03-15T10:24:46.945Z,22880.00
2019-03-15T10:25:49.821Z,23616.00
2019-03-15T10:26:46.985Z,22848.00
2019-03-15T10:27:47.004Z,19264.00
2019-03-15T10:28:47.021Z,18176.00
2019-03-15T10:29:47.044Z,18688.00
2019-03-15T10:30:47.068Z,16888.00
2019-03-15T10:31:47.083Z,15340.00
2019-03-15T10:32:47.107Z,14948.00
2019-03-15T10:33:50.810Z,15256.00
2019-03-15T10:34:47.145Z,15468.00
2019-03-15T10:35:47.164Z,16276.00
2019-03-15T10:36:47.184Z,15520.00
2019-03-15T10:37:47.207Z,13584.00
2019-03-15T10:38:47.227Z,12104.00
2019-03-15T10:39:47.241Z,14984.00
2019-03-15T10:40:47.270Z,14256.00
2019-03-15T10:41:47.279Z,10820.00
2019-03-15T10:42:47.304Z,9912.00
2019-03-15T10:43:47.325Z,10312.00
2019-03-15T10:44:47.340Z,10840.00
2019-03-15T10:45:47.363Z,9212.00
2019-03-15T10:46:47.379Z,11288.00
2019-03-15T10:47:47.402Z,15872.00
2019-03-15T10:48:47.419Z,19456.00
2019-03-15T10:49:47.438Z,18528.00
2019-03-15T10:50:47.455Z,14260.00
2019-03-15T10:51:47.478Z,9840.00
2019-03-15T10:52:47.495Z,8644.00
2019-03-15T10:53:47.515Z,8484.00
2019-03-15T10:54:47.533Z,7736.00
2019-03-15T10:55:59.486Z,6456.00
2019-03-15T10:56:47.571Z,9312.00
2019-03-15T10:57:47.589Z,9504.00
2019-03-15T10:58:47.607Z,10644.00
2019-03-15T10:59:47.635Z,11236.00
2019-03-15T11:00:47.647Z,13204.00
2019-03-15T11:01:47.668Z,15236.00
2019-03-15T11:02:47.686Z,14964.00
2019-03-15T11:03:47.709Z,13236.00
2019-03-15T11:04:47.783Z,16732.00
2019-03-15T11:05:47.805Z,20480.00
2019-03-15T11:06:47.795Z,20864.00
2019-03-15T11:07:47.923Z,20768.00
2019-03-15T11:08:47.858Z,19776.00
2019-03-15T11:09:47.857Z,18400.00
2019-03-15T11:10:47.857Z,20640.00
2019-03-15T11:11:47.856Z,24672.00
2019-03-15T11:12:47.873Z,22368.00
2019-03-15T11:13:47.891Z,19328.00
2019-03-15T11:14:47.912Z,18464.00
2019-03-15T11:15:47.931Z,18944.00
2019-03-15T11:16:47.954Z,21632.00
2019-03-15T11:17:47.968Z,23904.00
2019-03-15T11:18:47.992Z,24064.00
2019-03-15T11:19:48.007Z,24160.00
2019-03-15T11:20:48.026Z,24064.00
2019-03-15T11:21:48.046Z,22752.00
2019-03-15T11:22:48.064Z,20544.00
2019-03-15T11:23:48.084Z,21440.00
2019-03-15T11:24:48.105Z,21152.00
2019-03-15T11:25:48.130Z,18880.00
2019-03-15T11:26:48.142Z,17176.00
2019-03-15T11:27:48.163Z,18240.00
2019-03-15T11:28:48.182Z,17888.00
2019-03-15T11:29:48.207Z,16520.00
2019-03-15T11:30:48.221Z,19552.00
2019-03-15T11:31:48.241Z,17856.00
2019-03-15T11:32:48.264Z,17296.00
2019-03-15T11:33:48.283Z,20064.00
2019-03-15T11:34:48.298Z,23904.00
2019-03-15T11:35:48.318Z,21696.00
2019-03-15T11:36:57.923Z,20736.00
2019-03-15T11:37:48.358Z,21120.00
2019-03-15T11:38:48.377Z,20800.00
2019-03-15T11:39:48.399Z,20960.00
2019-03-15T11:40:48.417Z,22432.00
2019-03-15T11:41:48.436Z,21952.00
2019-03-15T11:42:48.455Z,20960.00
2019-03-15T11:43:48.478Z,25600.00
2019-03-15T11:44:48.497Z,25408.00
2019-03-15T11:45:48.517Z,24448.00
2019-03-15T11:46:48.550Z,26496.00
2019-03-15T11:48:02.553Z,26176.00
2019-03-15T11:48:48.576Z,22688.00
2019-03-15T11:49:48.597Z,24704.00
2019-03-15T11:50:48.618Z,24256.00
2019-03-15T11:51:48.641Z,24576.00
2019-03-15T11:52:48.658Z,26208.00
2019-03-15T11:53:48.675Z,24160.00
2019-03-15T11:54:49.863Z,22912.00
2019-03-15T11:55:48.719Z,23328.00
2019-03-15T11:56:50.857Z,23040.00
2019-03-15T11:57:48.757Z,22720.00
2019-03-15T11:58:48.778Z,21216.00
2019-03-15T11:59:48.800Z,22848.00
2019-03-15T12:00:48.878Z,18240.00
2019-03-15T12:01:48.839Z,16368.00
2019-03-15T12:02:48.869Z,13440.00
2019-03-15T12:03:53.379Z,13936.00
2019-03-15T12:04:48.902Z,15576.00
2019-03-15T12:05:48.921Z,17888.00
2019-03-15T12:06:48.942Z,19008.00
2019-03-15T12:07:48.962Z,18944.00
2019-03-15T12:08:48.982Z,16740.00
2019-03-15T12:09:49.003Z,16952.00
2019-03-15T12:10:49.023Z,18048.00
2019-03-15T12:11:49.043Z,18688.00
2019-03-15T12:12:49.062Z,17824.00
2019-03-15T12:13:49.083Z,15572.00
2019-03-15T12:14:49.102Z,16580.00
2019-03-15T12:15:49.123Z,15628.00
2019-03-15T12:16:49.144Z,14800.00
2019-03-15T12:17:49.173Z,16876.00
2019-03-15T12:18:49.193Z,18624.00
2019-03-15T12:19:49.203Z,18432.00
2019-03-15T12:20:49.505Z,15584.00
2019-03-15T12:21:49.243Z,10376.00
2019-03-15T12:22:49.263Z,7276.00
2019-03-15T12:23:49.282Z,6376.00
2019-03-15T12:24:49.305Z,5460.00
2019-03-15T12:25:49.321Z,4344.00
2019-03-15T12:26:49.341Z,4336.00